Main page
METAR-TAF:

METAR-TAF

Airports :

Juhu Aerodrome

Mumbai, India

latitude: 19-05-53N, longitude: 072-50-02E, elevation: 4 m

Current weather observation

The report was made 9 hours and 55 minutes ago, at 12:30 UTC
Wind 3 kt from the West/Southwest
Temperature 27°C
Humidity 79%
Pressure 1010 hPa
Visibility: 4000 m
Few clouds at a height of 2000 ft
Few clouds at a height of 2500 ft, Towering cumulus.
Scattered clouds at a height of 10000 ft
haze

METAR: VAJJ 041230Z 25003KT 4000 HZ FEW020 FEW025TCU SCT100 27/23 Q1010 NOSIG

Time: 03:55 (22:25 UTC)


TAF: missing

Weather observations and forecasts of more than 4000 airports (METAR and TAF reports).

The available stations are represented by yellow and red dots on the map.

Hover mouse over dot to see the name of the station.

Then click to see weather observations and forecasts.

To change the map : click on the green buttons with a black cross to zoom in, on the green button with a dash to zoom out, or on the green arrows for adjacent maps.


METAR-TAF: